sensor_id;sensor_type;location;lat;lon;timestamp;P1;durP1;ratioP1;P2;durP2;ratioP2
2019;SDS011;1014;51.960;8.542;2023-03-03T00:02:25;33.58;;;30.30;;
2019;SDS011;1014;51.960;8.542;2023-03-03T00:04:52;33.10;;;29.90;;
2019;SDS011;1014;51.960;8.542;2023-03-03T00:07:19;32.15;;;28.95;;
2019;SDS011;1014;51.960;8.542;2023-03-03T00:09:47;31.33;;;28.45;;
2019;SDS011;1014;51.960;8.542;2023-03-03T00:12:17;31.50;;;28.70;;
2019;SDS011;1014;51.960;8.542;2023-03-03T00:14:47;33.53;;;30.17;;
2019;SDS011;1014;51.960;8.542;2023-03-03T00:17:17;31.13;;;28.23;;
2019;SDS011;1014;51.960;8.542;2023-03-03T00:19:45;31.85;;;29.05;;
2019;SDS011;1014;51.960;8.542;2023-03-03T00:22:14;33.13;;;29.83;;
2019;SDS011;1014;51.960;8.542;2023-03-03T00:24:42;33.50;;;29.70;;
2019;SDS011;1014;51.960;8.542;2023-03-03T00:27:15;33.65;;;30.25;;
2019;SDS011;1014;51.960;8.542;2023-03-03T00:29:43;30.20;;;27.60;;
2019;SDS011;1014;51.960;8.542;2023-03-03T00:32:17;33.55;;;30.35;;
2019;SDS011;1014;51.960;8.542;2023-03-03T00:34:47;31.73;;;28.77;;
2019;SDS011;1014;51.960;8.542;2023-03-03T00:37:28;32.17;;;29.13;;
2019;SDS011;1014;51.960;8.542;2023-03-03T00:39:57;32.65;;;29.58;;
2019;SDS011;1014;51.960;8.542;2023-03-03T00:42:25;31.58;;;28.52;;
2019;SDS011;1014;51.960;8.542;2023-03-03T00:44:55;31.75;;;28.85;;
2019;SDS011;1014;51.960;8.542;2023-03-03T00:47:28;32.38;;;29.13;;
2019;SDS011;1014;51.960;8.542;2023-03-03T00:49:58;34.72;;;31.20;;
2019;SDS011;1014;51.960;8.542;2023-03-03T00:52:33;31.58;;;28.63;;
2019;SDS011;1014;51.960;8.542;2023-03-03T00:55:00;31.25;;;28.38;;
2019;SDS011;1014;51.960;8.542;2023-03-03T00:57:28;31.95;;;28.73;;
2019;SDS011;1014;51.960;8.542;2023-03-03T00:59:55;32.85;;;29.63;;
2019;SDS011;1014;51.960;8.542;2023-03-03T01:02:22;34.95;;;31.25;;
2019;SDS011;1014;51.960;8.542;2023-03-03T01:04:51;31.10;;;28.10;;
2019;SDS011;1014;51.960;8.542;2023-03-03T01:07:20;32.90;;;29.80;;
2019;SDS011;1014;51.960;8.542;2023-03-03T01:09:47;31.38;;;28.63;;
2019;SDS011;1014;51.960;8.542;2023-03-03T01:12:14;31.20;;;28.40;;
2019;SDS011;1014;51.960;8.542;2023-03-03T01:14:41;30.50;;;27.58;;
2019;SDS011;1014;51.960;8.542;2023-03-03T01:17:09;29.98;;;27.27;;
2019;SDS011;1014;51.960;8.542;2023-03-03T01:19:36;31.75;;;28.70;;
2019;SDS011;1014;51.960;8.542;2023-03-03T01:22:04;32.33;;;29.42;;
2019;SDS011;1014;51.960;8.542;2023-03-03T01:24:31;29.58;;;27.17;;
2019;SDS011;1014;51.960;8.542;2023-03-03T01:26:58;29.45;;;26.85;;
2019;SDS011;1014;51.960;8.542;2023-03-03T01:29:25;30.67;;;27.77;;
2019;SDS011;1014;51.960;8.542;2023-03-03T01:31:53;32.30;;;29.17;;
2019;SDS011;1014;51.960;8.542;2023-03-03T01:34:20;28.60;;;26.20;;
2019;SDS011;1014;51.960;8.542;2023-03-03T01:36:47;29.98;;;27.40;;
2019;SDS011;1014;51.960;8.542;2023-03-03T01:39:15;30.20;;;27.50;;
2019;SDS011;1014;51.960;8.542;2023-03-03T01:41:42;29.20;;;26.52;;
2019;SDS011;1014;51.960;8.542;2023-03-03T01:44:10;30.58;;;27.75;;
2019;SDS011;1014;51.960;8.542;2023-03-03T01:46:43;30.25;;;27.25;;
2019;SDS011;1014;51.960;8.542;2023-03-03T01:49:13;28.70;;;26.10;;
2019;SDS011;1014;51.960;8.542;2023-03-03T01:51:44;29.85;;;27.08;;
2019;SDS011;1014;51.960;8.542;2023-03-03T01:54:13;29.02;;;26.52;;
2019;SDS011;1014;51.960;8.542;2023-03-03T01:56:42;30.02;;;26.95;;
2019;SDS011;1014;51.960;8.542;2023-03-03T01:59:10;30.70;;;28.00;;
2019;SDS011;1014;51.960;8.542;2023-03-03T02:01:39;29.92;;;27.15;;
2019;SDS011;1014;51.960;8.542;2023-03-03T02:04:07;31.13;;;27.95;;
2019;SDS011;1014;51.960;8.542;2023-03-03T02:06:34;28.35;;;26.00;;
2019;SDS011;1014;51.960;8.542;2023-03-03T02:09:03;31.63;;;28.65;;
2019;SDS011;1014;51.960;8.542;2023-03-03T02:11:32;30.00;;;27.25;;
2019;SDS011;1014;51.960;8.542;2023-03-03T02:14:01;29.67;;;26.98;;
2019;SDS011;1014;51.960;8.542;2023-03-03T02:16:28;29.55;;;26.90;;
2019;SDS011;1014;51.960;8.542;2023-03-03T02:18:56;32.03;;;29.17;;
2019;SDS011;1014;51.960;8.542;2023-03-03T02:21:24;30.83;;;28.02;;
2019;SDS011;1014;51.960;8.542;2023-03-03T02:23:52;29.40;;;26.70;;
2019;SDS011;1014;51.960;8.542;2023-03-03T02:26:23;30.35;;;27.75;;
2019;SDS011;1014;51.960;8.542;2023-03-03T02:28:50;31.15;;;28.15;;
2019;SDS011;1014;51.960;8.542;2023-03-03T02:31:18;31.63;;;28.70;;
2019;SDS011;1014;51.960;8.542;2023-03-03T02:33:46;31.90;;;28.83;;
2019;SDS011;1014;51.960;8.542;2023-03-03T02:36:15;32.13;;;28.83;;
2019;SDS011;1014;51.960;8.542;2023-03-03T02:38:43;31.90;;;28.50;;
2019;SDS011;1014;51.960;8.542;2023-03-03T02:41:14;29.77;;;27.35;;
2019;SDS011;1014;51.960;8.542;2023-03-03T02:43:45;32.00;;;28.75;;
2019;SDS011;1014;51.960;8.542;2023-03-03T02:46:12;29.83;;;27.05;;
2019;SDS011;1014;51.960;8.542;2023-03-03T02:48:39;29.52;;;26.73;;
2019;SDS011;1014;51.960;8.542;2023-03-03T02:51:06;31.42;;;28.40;;
2019;SDS011;1014;51.960;8.542;2023-03-03T02:53:33;31.88;;;28.90;;
2019;SDS011;1014;51.960;8.542;2023-03-03T02:56:00;31.38;;;28.40;;
2019;SDS011;1014;51.960;8.542;2023-03-03T02:58:28;32.80;;;29.60;;
2019;SDS011;1014;51.960;8.542;2023-03-03T03:00:56;30.98;;;28.08;;
2019;SDS011;1014;51.960;8.542;2023-03-03T03:03:23;32.55;;;29.27;;
2019;SDS011;1014;51.960;8.542;2023-03-03T03:05:50;31.80;;;28.60;;
2019;SDS011;1014;51.960;8.542;2023-03-03T03:08:17;32.75;;;29.25;;
2019;SDS011;1014;51.960;8.542;2023-03-03T03:10:44;33.55;;;30.30;;
2019;SDS011;1014;51.960;8.542;2023-03-03T03:13:11;33.75;;;30.55;;
2019;SDS011;1014;51.960;8.542;2023-03-03T03:15:38;33.10;;;29.75;;
2019;SDS011;1014;51.960;8.542;2023-03-03T03:18:07;32.58;;;29.40;;
2019;SDS011;1014;51.960;8.542;2023-03-03T03:20:34;33.30;;;29.88;;
2019;SDS011;1014;51.960;8.542;2023-03-03T03:23:02;33.38;;;29.77;;
2019;SDS011;1014;51.960;8.542;2023-03-03T03:25:29;34.05;;;30.80;;
2019;SDS011;1014;51.960;8.542;2023-03-03T03:27:56;36.22;;;30.65;;
2019;SDS011;1014;51.960;8.542;2023-03-03T03:30:22;35.60;;;31.80;;
2019;SDS011;1014;51.960;8.542;2023-03-03T03:32:49;35.90;;;31.98;;
2019;SDS011;1014;51.960;8.542;2023-03-03T03:35:18;35.45;;;30.98;;
2019;SDS011;1014;51.960;8.542;2023-03-03T03:37:45;40.88;;;33.20;;
2019;SDS011;1014;51.960;8.542;2023-03-03T03:40:12;36.30;;;31.70;;
2019;SDS011;1014;51.960;8.542;2023-03-03T03:42:39;40.53;;;34.13;;
2019;SDS011;1014;51.960;8.542;2023-03-03T03:47:39;35.80;;;31.83;;
2019;SDS011;1014;51.960;8.542;2023-03-03T03:50:06;36.25;;;32.17;;
2019;SDS011;1014;51.960;8.542;2023-03-03T03:52:35;37.17;;;31.17;;
2019;SDS011;1014;51.960;8.542;2023-03-03T03:55:02;44.55;;;33.60;;
2019;SDS011;1014;51.960;8.542;2023-03-03T03:57:29;36.05;;;30.83;;
2019;SDS011;1014;51.960;8.542;2023-03-03T03:59:56;42.67;;;34.30;;
2019;SDS011;1014;51.960;8.542;2023-03-03T04:02:23;41.10;;;33.33;;
2019;SDS011;1014;51.960;8.542;2023-03-03T04:04:50;46.13;;;32.85;;
2019;SDS011;1014;51.960;8.542;2023-03-03T04:07:17;41.50;;;33.78;;
2019;SDS011;1014;51.960;8.542;2023-03-03T04:09:45;38.47;;;32.22;;
2019;SDS011;1014;51.960;8.542;2023-03-03T04:12:12;40.13;;;32.45;;
2019;SDS011;1014;51.960;8.542;2023-03-03T04:14:39;42.83;;;31.58;;
2019;SDS011;1014;51.960;8.542;2023-03-03T04:17:06;36.33;;;29.42;;
2019;SDS011;1014;51.960;8.542;2023-03-03T04:19:33;42.63;;;31.10;;
2019;SDS011;1014;51.960;8.542;2023-03-03T04:22:00;37.15;;;30.05;;
2019;SDS011;1014;51.960;8.542;2023-03-03T04:24:27;36.67;;;31.52;;
2019;SDS011;1014;51.960;8.542;2023-03-03T04:26:55;38.45;;;33.20;;
2019;SDS011;1014;51.960;8.542;2023-03-03T04:29:22;35.10;;;29.80;;
2019;SDS011;1014;51.960;8.542;2023-03-03T04:31:49;36.05;;;30.95;;
2019;SDS011;1014;51.960;8.542;2023-03-03T04:34:16;37.65;;;29.90;;
2019;SDS011;1014;51.960;8.542;2023-03-03T04:36:43;41.80;;;32.83;;
2019;SDS011;1014;51.960;8.542;2023-03-03T04:39:10;38.45;;;33.75;;
2019;SDS011;1014;51.960;8.542;2023-03-03T04:41:37;37.70;;;30.58;;
2019;SDS011;1014;51.960;8.542;2023-03-03T04:44:06;43.50;;;34.97;;
2019;SDS011;1014;51.960;8.542;2023-03-03T04:46:33;46.97;;;33.97;;
2019;SDS011;1014;51.960;8.542;2023-03-03T04:49:00;40.30;;;33.55;;
2019;SDS011;1014;51.960;8.542;2023-03-03T04:51:27;44.75;;;34.38;;
2019;SDS011;1014;51.960;8.542;2023-03-03T04:53:54;35.83;;;29.92;;
2019;SDS011;1014;51.960;8.542;2023-03-03T04:56:21;48.63;;;34.03;;
2019;SDS011;1014;51.960;8.542;2023-03-03T04:58:54;45.65;;;32.13;;
2019;SDS011;1014;51.960;8.542;2023-03-03T05:01:23;43.33;;;33.38;;
2019;SDS011;1014;51.960;8.542;2023-03-03T05:03:50;47.60;;;36.90;;
2019;SDS011;1014;51.960;8.542;2023-03-03T05:06:17;45.95;;;32.58;;
2019;SDS011;1014;51.960;8.542;2023-03-03T05:08:44;47.22;;;34.75;;
2019;SDS011;1014;51.960;8.542;2023-03-03T05:11:11;48.33;;;33.65;;
2019;SDS011;1014;51.960;8.542;2023-03-03T05:13:38;55.00;;;36.10;;
2019;SDS011;1014;51.960;8.542;2023-03-03T05:16:06;43.70;;;31.55;;
2019;SDS011;1014;51.960;8.542;2023-03-03T05:18:34;49.80;;;34.50;;
2019;SDS011;1014;51.960;8.542;2023-03-03T05:21:01;44.50;;;31.23;;
2019;SDS011;1014;51.960;8.542;2023-03-03T05:23:28;46.00;;;32.97;;
2019;SDS011;1014;51.960;8.542;2023-03-03T05:25:56;52.60;;;33.50;;
2019;SDS011;1014;51.960;8.542;2023-03-03T05:28:23;52.75;;;32.70;;
2019;SDS011;1014;51.960;8.542;2023-03-03T05:30:50;39.35;;;31.70;;
2019;SDS011;1014;51.960;8.542;2023-03-03T05:33:17;48.83;;;33.35;;
2019;SDS011;1014;51.960;8.542;2023-03-03T05:35:46;46.85;;;35.50;;
2019;SDS011;1014;51.960;8.542;2023-03-03T05:38:13;51.50;;;33.63;;
2019;SDS011;1014;51.960;8.542;2023-03-03T05:40:40;48.67;;;34.90;;
2019;SDS011;1014;51.960;8.542;2023-03-03T05:43:07;51.38;;;34.63;;
2019;SDS011;1014;51.960;8.542;2023-03-03T05:45:34;60.70;;;37.15;;
2019;SDS011;1014;51.960;8.542;2023-03-03T05:48:02;51.95;;;33.30;;
2019;SDS011;1014;51.960;8.542;2023-03-03T05:50:29;54.28;;;35.13;;
2019;SDS011;1014;51.960;8.542;2023-03-03T05:52:57;56.70;;;34.60;;
2019;SDS011;1014;51.960;8.542;2023-03-03T05:55:25;59.90;;;32.28;;
2019;SDS011;1014;51.960;8.542;2023-03-03T05:57:52;61.72;;;34.90;;
2019;SDS011;1014;51.960;8.542;2023-03-03T06:00:19;57.20;;;35.22;;
2019;SDS011;1014;51.960;8.542;2023-03-03T06:02:46;70.60;;;37.47;;
2019;SDS011;1014;51.960;8.542;2023-03-03T06:05:13;54.17;;;33.95;;
2019;SDS011;1014;51.960;8.542;2023-03-03T06:07:40;53.67;;;35.72;;
2019;SDS011;1014;51.960;8.542;2023-03-03T06:10:09;55.65;;;35.40;;
2019;SDS011;1014;51.960;8.542;2023-03-03T06:12:36;56.85;;;35.55;;
2019;SDS011;1014;51.960;8.542;2023-03-03T06:15:05;56.30;;;34.40;;
2019;SDS011;1014;51.960;8.542;2023-03-03T06:17:32;57.80;;;35.47;;
2019;SDS011;1014;51.960;8.542;2023-03-03T06:19:59;58.05;;;36.78;;
2019;SDS011;1014;51.960;8.542;2023-03-03T06:22:27;55.10;;;35.95;;
2019;SDS011;1014;51.960;8.542;2023-03-03T06:24:54;46.50;;;33.10;;
2019;SDS011;1014;51.960;8.542;2023-03-03T06:27:22;48.38;;;32.50;;
2019;SDS011;1014;51.960;8.542;2023-03-03T06:29:49;57.40;;;34.70;;
2019;SDS011;1014;51.960;8.542;2023-03-03T06:32:17;37.90;;;28.52;;
2019;SDS011;1014;51.960;8.542;2023-03-03T06:34:43;53.88;;;35.85;;
2019;SDS011;1014;51.960;8.542;2023-03-03T06:37:10;42.78;;;32.58;;
2019;SDS011;1014;51.960;8.542;2023-03-03T06:39:38;55.53;;;33.65;;
2019;SDS011;1014;51.960;8.542;2023-03-03T06:42:05;55.40;;;36.40;;
2019;SDS011;1014;51.960;8.542;2023-03-03T06:44:34;48.70;;;34.65;;
2019;SDS011;1014;51.960;8.542;2023-03-03T06:47:02;53.83;;;35.78;;
2019;SDS011;1014;51.960;8.542;2023-03-03T06:49:29;57.60;;;37.53;;
2019;SDS011;1014;51.960;8.542;2023-03-03T06:51:57;57.50;;;35.92;;
2019;SDS011;1014;51.960;8.542;2023-03-03T06:54:26;57.38;;;35.88;;
2019;SDS011;1014;51.960;8.542;2023-03-03T06:56:55;60.58;;;36.30;;
2019;SDS011;1014;51.960;8.542;2023-03-03T06:59:25;48.47;;;35.95;;
2019;SDS011;1014;51.960;8.542;2023-03-03T07:01:53;55.08;;;34.97;;
2019;SDS011;1014;51.960;8.542;2023-03-03T07:04:23;50.88;;;35.78;;
2019;SDS011;1014;51.960;8.542;2023-03-03T07:06:52;53.00;;;35.50;;
2019;SDS011;1014;51.960;8.542;2023-03-03T07:09:20;49.45;;;33.90;;
2019;SDS011;1014;51.960;8.542;2023-03-03T07:11:48;43.65;;;31.88;;
2019;SDS011;1014;51.960;8.542;2023-03-03T07:14:16;45.30;;;31.55;;
2019;SDS011;1014;51.960;8.542;2023-03-03T07:16:43;47.88;;;33.47;;
2019;SDS011;1014;51.960;8.542;2023-03-03T07:19:15;43.10;;;32.20;;
2019;SDS011;1014;51.960;8.542;2023-03-03T07:21:43;49.83;;;33.15;;
2019;SDS011;1014;51.960;8.542;2023-03-03T07:24:15;53.10;;;34.33;;
2019;SDS011;1014;51.960;8.542;2023-03-03T07:26:44;48.38;;;31.90;;
2019;SDS011;1014;51.960;8.542;2023-03-03T07:29:15;52.70;;;33.53;;
2019;SDS011;1014;51.960;8.542;2023-03-03T07:31:44;52.05;;;35.05;;
2019;SDS011;1014;51.960;8.542;2023-03-03T07:34:14;54.15;;;34.45;;
2019;SDS011;1014;51.960;8.542;2023-03-03T07:36:43;59.63;;;35.20;;
2019;SDS011;1014;51.960;8.542;2023-03-03T07:39:23;50.47;;;34.47;;
2019;SDS011;1014;51.960;8.542;2023-03-03T07:41:51;59.65;;;36.00;;
2019;SDS011;1014;51.960;8.542;2023-03-03T07:44:20;54.88;;;36.10;;
2019;SDS011;1014;51.960;8.542;2023-03-03T07:46:48;66.43;;;35.65;;
2019;SDS011;1014;51.960;8.542;2023-03-03T07:49:21;56.08;;;35.90;;
2019;SDS011;1014;51.960;8.542;2023-03-03T07:51:51;51.78;;;34.45;;
2019;SDS011;1014;51.960;8.542;2023-03-03T07:54:28;53.03;;;35.08;;
2019;SDS011;1014;51.960;8.542;2023-03-03T07:56:57;51.10;;;36.25;;
2019;SDS011;1014;51.960;8.542;2023-03-03T07:59:24;42.20;;;30.70;;
2019;SDS011;1014;51.960;8.542;2023-03-03T08:01:51;52.67;;;33.85;;
2019;SDS011;1014;51.960;8.542;2023-03-03T08:04:21;50.95;;;33.90;;
2019;SDS011;1014;51.960;8.542;2023-03-03T08:06:50;44.78;;;31.92;;
2019;SDS011;1014;51.960;8.542;2023-03-03T08:09:24;53.90;;;34.88;;
2019;SDS011;1014;51.960;8.542;2023-03-03T08:11:54;48.03;;;33.28;;
2019;SDS011;1014;51.960;8.542;2023-03-03T08:14:24;42.40;;;31.45;;
2019;SDS011;1014;51.960;8.542;2023-03-03T08:16:51;47.90;;;33.00;;
2019;SDS011;1014;51.960;8.542;2023-03-03T08:19:18;45.50;;;32.78;;
2019;SDS011;1014;51.960;8.542;2023-03-03T08:21:47;55.00;;;35.70;;
2019;SDS011;1014;51.960;8.542;2023-03-03T08:24:15;54.30;;;33.63;;
2019;SDS011;1014;51.960;8.542;2023-03-03T08:26:42;44.33;;;30.58;;
2019;SDS011;1014;51.960;8.542;2023-03-03T08:29:09;43.30;;;30.58;;
2019;SDS011;1014;51.960;8.542;2023-03-03T08:31:36;51.53;;;34.25;;
2019;SDS011;1014;51.960;8.542;2023-03-03T08:34:03;54.58;;;33.90;;
2019;SDS011;1014;51.960;8.542;2023-03-03T08:36:30;54.53;;;33.25;;
2019;SDS011;1014;51.960;8.542;2023-03-03T08:38:58;49.00;;;33.67;;
2019;SDS011;1014;51.960;8.542;2023-03-03T08:41:25;52.28;;;34.03;;
2019;SDS011;1014;51.960;8.542;2023-03-03T08:43:52;52.50;;;34.05;;
2019;SDS011;1014;51.960;8.542;2023-03-03T08:46:19;50.10;;;34.80;;
2019;SDS011;1014;51.960;8.542;2023-03-03T08:48:46;44.33;;;32.53;;
2019;SDS011;1014;51.960;8.542;2023-03-03T08:51:13;44.25;;;31.58;;
2019;SDS011;1014;51.960;8.542;2023-03-03T08:53:40;51.25;;;33.28;;
2019;SDS011;1014;51.960;8.542;2023-03-03T08:56:08;42.22;;;30.85;;
2019;SDS011;1014;51.960;8.542;2023-03-03T08:58:35;37.63;;;30.10;;
2019;SDS011;1014;51.960;8.542;2023-03-03T09:01:03;46.03;;;31.17;;
2019;SDS011;1014;51.960;8.542;2023-03-03T09:03:30;38.90;;;29.50;;
2019;SDS011;1014;51.960;8.542;2023-03-03T09:05:57;39.90;;;30.42;;
2019;SDS011;1014;51.960;8.542;2023-03-03T09:08:24;39.67;;;29.17;;
2019;SDS011;1014;51.960;8.542;2023-03-03T09:10:51;34.05;;;29.50;;
2019;SDS011;1014;51.960;8.542;2023-03-03T09:13:20;39.60;;;30.58;;
2019;SDS011;1014;51.960;8.542;2023-03-03T09:15:47;38.47;;;29.85;;
2019;SDS011;1014;51.960;8.542;2023-03-03T09:18:15;39.22;;;29.10;;
2019;SDS011;1014;51.960;8.542;2023-03-03T09:20:43;37.78;;;28.80;;
2019;SDS011;1014;51.960;8.542;2023-03-03T09:23:30;42.53;;;31.92;;
2019;SDS011;1014;51.960;8.542;2023-03-03T09:26:05;42.13;;;32.20;;
2019;SDS011;1014;51.960;8.542;2023-03-03T09:28:40;40.70;;;31.85;;
2019;SDS011;1014;51.960;8.542;2023-03-03T09:31:16;38.67;;;32.03;;
2019;SDS011;1014;51.960;8.542;2023-03-03T09:33:46;46.55;;;32.10;;
2019;SDS011;1014;51.960;8.542;2023-03-03T09:36:18;35.42;;;29.70;;
2019;SDS011;1014;51.960;8.542;2023-03-03T09:38:46;41.55;;;29.85;;
2019;SDS011;1014;51.960;8.542;2023-03-03T09:41:17;39.70;;;29.40;;
2019;SDS011;1014;51.960;8.542;2023-03-03T09:43:56;39.60;;;29.40;;
2019;SDS011;1014;51.960;8.542;2023-03-03T09:46:27;44.53;;;31.70;;
2019;SDS011;1014;51.960;8.542;2023-03-03T09:49:00;37.60;;;29.35;;
2019;SDS011;1014;51.960;8.542;2023-03-03T09:51:32;36.72;;;28.85;;
2019;SDS011;1014;51.960;8.542;2023-03-03T09:54:11;36.85;;;29.50;;
2019;SDS011;1014;51.960;8.542;2023-03-03T09:56:42;33.42;;;27.90;;
2019;SDS011;1014;51.960;8.542;2023-03-03T09:59:17;37.92;;;29.05;;
2019;SDS011;1014;51.960;8.542;2023-03-03T10:01:49;37.42;;;29.23;;
2019;SDS011;1014;51.960;8.542;2023-03-03T10:04:32;36.78;;;29.17;;
2019;SDS011;1014;51.960;8.542;2023-03-03T10:07:08;35.78;;;29.10;;
2019;SDS011;1014;51.960;8.542;2023-03-03T10:09:40;33.88;;;29.85;;
2019;SDS011;1014;51.960;8.542;2023-03-03T10:12:09;33.50;;;28.55;;
2019;SDS011;1014;51.960;8.542;2023-03-03T10:17:23;36.10;;;29.88;;
2019;SDS011;1014;51.960;8.542;2023-03-03T10:19:58;35.10;;;30.95;;
2019;SDS011;1014;51.960;8.542;2023-03-03T10:22:28;30.42;;;26.83;;
2019;SDS011;1014;51.960;8.542;2023-03-03T10:25:01;34.90;;;30.42;;
2019;SDS011;1014;51.960;8.542;2023-03-03T10:27:35;33.10;;;29.20;;
2019;SDS011;1014;51.960;8.542;2023-03-03T10:30:07;35.67;;;28.90;;
2019;SDS011;1014;51.960;8.542;2023-03-03T10:32:43;33.30;;;28.65;;
2019;SDS011;1014;51.960;8.542;2023-03-03T10:40:52;35.28;;;27.70;;
2019;SDS011;1014;51.960;8.542;2023-03-03T10:43:27;35.85;;;30.25;;
2019;SDS011;1014;51.960;8.542;2023-03-03T10:46:03;36.78;;;29.45;;
2019;SDS011;1014;51.960;8.542;2023-03-03T10:48:40;31.88;;;28.63;;
2019;SDS011;1014;51.960;8.542;2023-03-03T10:51:14;36.03;;;29.50;;
2019;SDS011;1014;51.960;8.542;2023-03-03T10:53:46;37.38;;;29.58;;
2019;SDS011;1014;51.960;8.542;2023-03-03T10:56:21;36.60;;;30.63;;
2019;SDS011;1014;51.960;8.542;2023-03-03T10:58:55;36.22;;;30.52;;
2019;SDS011;1014;51.960;8.542;2023-03-03T11:01:25;35.30;;;29.52;;
2019;SDS011;1014;51.960;8.542;2023-03-03T11:04:09;33.45;;;29.52;;
2019;SDS011;1014;51.960;8.542;2023-03-03T11:06:40;34.53;;;29.23;;
2019;SDS011;1014;51.960;8.542;2023-03-03T11:09:11;37.75;;;31.73;;
2019;SDS011;1014;51.960;8.542;2023-03-03T11:11:41;34.25;;;30.50;;
2019;SDS011;1014;51.960;8.542;2023-03-03T11:14:12;36.37;;;30.13;;
2019;SDS011;1014;51.960;8.542;2023-03-03T11:16:44;42.83;;;32.63;;
2019;SDS011;1014;51.960;8.542;2023-03-03T11:22:02;41.25;;;33.15;;
2019;SDS011;1014;51.960;8.542;2023-03-03T11:24:36;42.90;;;34.95;;
2019;SDS011;1014;51.960;8.542;2023-03-03T11:27:08;44.33;;;33.40;;
2019;SDS011;1014;51.960;8.542;2023-03-03T11:29:44;43.47;;;33.20;;
2019;SDS011;1014;51.960;8.542;2023-03-03T11:32:18;45.63;;;34.95;;
2019;SDS011;1014;51.960;8.542;2023-03-03T11:34:52;44.60;;;34.97;;
2019;SDS011;1014;51.960;8.542;2023-03-03T11:37:23;44.37;;;34.50;;
2019;SDS011;1014;51.960;8.542;2023-03-03T11:39:53;40.00;;;33.13;;
2019;SDS011;1014;51.960;8.542;2023-03-03T11:42:23;42.95;;;32.92;;
2019;SDS011;1014;51.960;8.542;2023-03-03T11:44:52;41.45;;;32.30;;
2019;SDS011;1014;51.960;8.542;2023-03-03T11:47:21;44.40;;;33.73;;
2019;SDS011;1014;51.960;8.542;2023-03-03T11:49:50;45.33;;;34.47;;
2019;SDS011;1014;51.960;8.542;2023-03-03T11:52:24;43.90;;;34.97;;
2019;SDS011;1014;51.960;8.542;2023-03-03T11:54:55;40.20;;;32.70;;
2019;SDS011;1014;51.960;8.542;2023-03-03T11:57:25;42.72;;;33.30;;
2019;SDS011;1014;51.960;8.542;2023-03-03T11:59:58;44.78;;;33.72;;
2019;SDS011;1014;51.960;8.542;2023-03-03T12:02:39;44.03;;;33.43;;
2019;SDS011;1014;51.960;8.542;2023-03-03T12:05:11;38.13;;;32.80;;
2019;SDS011;1014;51.960;8.542;2023-03-03T12:07:44;45.40;;;33.53;;
2019;SDS011;1014;51.960;8.542;2023-03-03T12:10:16;38.40;;;32.57;;
2019;SDS011;1014;51.960;8.542;2023-03-03T12:12:47;44.03;;;36.95;;
2019;SDS011;1014;51.960;8.542;2023-03-03T12:15:21;44.33;;;32.65;;
2019;SDS011;1014;51.960;8.542;2023-03-03T12:18:14;42.73;;;32.93;;
2019;SDS011;1014;51.960;8.542;2023-03-03T12:20:46;27.15;;;24.65;;
2019;SDS011;1014;51.960;8.542;2023-03-03T12:23:19;39.33;;;31.92;;
2019;SDS011;1014;51.960;8.542;2023-03-03T12:25:53;38.38;;;30.42;;
2019;SDS011;1014;51.960;8.542;2023-03-03T12:28:24;39.83;;;30.80;;
2019;SDS011;1014;51.960;8.542;2023-03-03T12:30:59;39.22;;;32.38;;
2019;SDS011;1014;51.960;8.542;2023-03-03T12:33:31;45.45;;;32.65;;
2019;SDS011;1014;51.960;8.542;2023-03-03T12:39:09;41.10;;;33.15;;
2019;SDS011;1014;51.960;8.542;2023-03-03T12:41:39;40.93;;;33.70;;
2019;SDS011;1014;51.960;8.542;2023-03-03T12:44:13;47.85;;;33.65;;
2019;SDS011;1014;51.960;8.542;2023-03-03T12:46:43;40.92;;;32.83;;
2019;SDS011;1014;51.960;8.542;2023-03-03T12:49:11;44.20;;;33.83;;
2019;SDS011;1014;51.960;8.542;2023-03-03T12:51:51;38.85;;;32.75;;
2019;SDS011;1014;51.960;8.542;2023-03-03T12:54:38;40.88;;;31.75;;
2019;SDS011;1014;51.960;8.542;2023-03-03T12:57:11;39.63;;;31.70;;
2019;SDS011;1014;51.960;8.542;2023-03-03T12:59:41;43.23;;;34.10;;
2019;SDS011;1014;51.960;8.542;2023-03-03T13:02:19;45.40;;;33.70;;
2019;SDS011;1014;51.960;8.542;2023-03-03T13:04:52;46.47;;;36.10;;
2019;SDS011;1014;51.960;8.542;2023-03-03T13:07:22;42.33;;;33.70;;
2019;SDS011;1014;51.960;8.542;2023-03-03T13:09:58;45.28;;;33.17;;
2019;SDS011;1014;51.960;8.542;2023-03-03T13:12:33;36.85;;;30.70;;
2019;SDS011;1014;51.960;8.542;2023-03-03T13:15:04;44.53;;;32.75;;
2019;SDS011;1014;51.960;8.542;2023-03-03T13:17:37;41.17;;;32.60;;
2019;SDS011;1014;51.960;8.542;2023-03-03T13:20:07;44.80;;;34.10;;
2019;SDS011;1014;51.960;8.542;2023-03-03T13:22:38;35.30;;;29.83;;
2019;SDS011;1014;51.960;8.542;2023-03-03T13:25:13;43.60;;;33.30;;
2019;SDS011;1014;51.960;8.542;2023-03-03T13:27:44;52.42;;;35.38;;
2019;SDS011;1014;51.960;8.542;2023-03-03T13:30:14;47.20;;;35.57;;
2019;SDS011;1014;51.960;8.542;2023-03-03T13:32:42;47.65;;;35.00;;
2019;SDS011;1014;51.960;8.542;2023-03-03T13:35:15;39.35;;;32.75;;
2019;SDS011;1014;51.960;8.542;2023-03-03T13:37:44;38.83;;;31.70;;
2019;SDS011;1014;51.960;8.542;2023-03-03T13:40:15;42.10;;;33.50;;
2019;SDS011;1014;51.960;8.542;2023-03-03T13:42:44;40.37;;;30.93;;
2019;SDS011;1014;51.960;8.542;2023-03-03T13:45:15;33.83;;;30.00;;
2019;SDS011;1014;51.960;8.542;2023-03-03T13:47:44;41.42;;;34.03;;
2019;SDS011;1014;51.960;8.542;2023-03-03T13:50:17;42.07;;;34.80;;
2019;SDS011;1014;51.960;8.542;2023-03-03T13:52:47;44.20;;;35.43;;
2019;SDS011;1014;51.960;8.542;2023-03-03T13:55:18;37.10;;;33.10;;
2019;SDS011;1014;51.960;8.542;2023-03-03T13:57:53;40.83;;;32.90;;
2019;SDS011;1014;51.960;8.542;2023-03-03T14:00:24;42.60;;;33.33;;
2019;SDS011;1014;51.960;8.542;2023-03-03T14:02:56;34.47;;;30.50;;
2019;SDS011;1014;51.960;8.542;2023-03-03T14:05:25;35.00;;;29.77;;
2019;SDS011;1014;51.960;8.542;2023-03-03T14:07:57;40.85;;;32.90;;
2019;SDS011;1014;51.960;8.542;2023-03-03T14:10:26;41.47;;;33.60;;
2019;SDS011;1014;51.960;8.542;2023-03-03T14:12:57;37.20;;;30.98;;
2019;SDS011;1014;51.960;8.542;2023-03-03T14:15:26;36.58;;;30.23;;
2019;SDS011;1014;51.960;8.542;2023-03-03T14:18:00;38.00;;;33.93;;
2019;SDS011;1014;51.960;8.542;2023-03-03T14:20:30;36.00;;;31.40;;
2019;SDS011;1014;51.960;8.542;2023-03-03T14:22:58;35.27;;;31.47;;
2019;SDS011;1014;51.960;8.542;2023-03-03T14:25:28;35.33;;;30.80;;
2019;SDS011;1014;51.960;8.542;2023-03-03T14:28:20;33.93;;;30.30;;
2019;SDS011;1014;51.960;8.542;2023-03-03T14:30:47;35.78;;;31.92;;
2019;SDS011;1014;51.960;8.542;2023-03-03T14:33:17;31.87;;;28.57;;
2019;SDS011;1014;51.960;8.542;2023-03-03T14:35:47;35.57;;;29.67;;
2019;SDS011;1014;51.960;8.542;2023-03-03T14:38:16;35.70;;;31.83;;
2019;SDS011;1014;51.960;8.542;2023-03-03T14:40:44;35.37;;;31.67;;
2019;SDS011;1014;51.960;8.542;2023-03-03T14:43:21;32.92;;;29.60;;
2019;SDS011;1014;51.960;8.542;2023-03-03T14:45:48;33.43;;;30.13;;
2019;SDS011;1014;51.960;8.542;2023-03-03T14:48:16;34.67;;;31.07;;
2019;SDS011;1014;51.960;8.542;2023-03-03T14:50:47;34.80;;;30.27;;
2019;SDS011;1014;51.960;8.542;2023-03-03T14:53:19;30.02;;;27.08;;
2019;SDS011;1014;51.960;8.542;2023-03-03T14:55:47;33.70;;;30.10;;
2019;SDS011;1014;51.960;8.542;2023-03-03T14:58:25;34.28;;;29.98;;
2019;SDS011;1014;51.960;8.542;2023-03-03T15:01:11;29.30;;;26.50;;
2019;SDS011;1014;51.960;8.542;2023-03-03T15:03:43;29.57;;;26.90;;
2019;SDS011;1014;51.960;8.542;2023-03-03T15:06:12;31.70;;;28.48;;
2019;SDS011;1014;51.960;8.542;2023-03-03T15:08:52;32.53;;;29.38;;
2019;SDS011;1014;51.960;8.542;2023-03-03T15:11:20;32.10;;;28.70;;
2019;SDS011;1014;51.960;8.542;2023-03-03T15:13:53;31.07;;;28.07;;
2019;SDS011;1014;51.960;8.542;2023-03-03T15:16:30;33.38;;;30.00;;
2019;SDS011;1014;51.960;8.542;2023-03-03T15:19:05;31.67;;;28.57;;
2019;SDS011;1014;51.960;8.542;2023-03-03T15:21:38;29.50;;;26.58;;